Appomattox, Virginia
Current Conditions -  °F | °C
As of 3:35 PM on Thursday 29 Jan 2015 (Local Time) from K0V4 Reporting Station
Overcast Overcast  
Wind Chill:   Ceiling: 7000
Heat Index:   Visibility: 10mi
Dew Point: -2°   Wind: 7mph
Humidity: 60%   Direction: 200°SSW
Pressure: 30.09"   Gusts: NA
Location:  37.36°N, 78.83°W
Report Text: K0V4 292035Z AUTO 20006KT 10SM BKN070 OVC085 06/M01 A3009 RMK AO1 T00581015
Loading
Personal Weather Stations






























Interactive Weather Map New forecast layout! Learn more

10-Day Weather Forecast

Advertisements
Track Severe Weather on mobile